createdAt,value
2022-09-15T00:00:13.114Z,1.23
2022-09-15T00:02:41.769Z,0.90
2022-09-15T00:05:09.339Z,1.10
2022-09-15T00:07:39.131Z,1.00
2022-09-15T00:10:06.960Z,1.10
2022-09-15T00:12:34.385Z,1.40
2022-09-15T00:15:01.762Z,1.20
2022-09-15T00:17:29.051Z,1.20
2022-09-15T00:19:58.365Z,1.10
2022-09-15T00:22:26.163Z,1.00
2022-09-15T00:24:53.484Z,1.10
2022-09-15T00:27:20.824Z,1.67
2022-09-15T00:29:48.131Z,1.17
2022-09-15T00:32:15.406Z,1.02
2022-09-15T00:34:42.824Z,1.00
2022-09-15T00:37:11.492Z,0.80
2022-09-15T00:39:38.807Z,0.98
2022-09-15T00:42:06.377Z,1.55
2022-09-15T00:44:50.069Z,1.63
2022-09-15T00:47:19.637Z,1.58
2022-09-15T00:49:47.576Z,1.88
2022-09-15T00:52:16.657Z,2.05
2022-09-15T00:54:45.102Z,1.63
2022-09-15T00:57:12.732Z,2.10
2022-09-15T00:59:40.357Z,2.30
2022-09-15T01:02:09.694Z,2.30
2022-09-15T01:04:37.093Z,2.10
2022-09-15T01:07:04.882Z,2.38
2022-09-15T01:09:34.212Z,2.15
2022-09-15T01:12:01.494Z,2.30
2022-09-15T01:14:28.836Z,2.10
2022-09-15T01:16:57.818Z,1.75
2022-09-15T01:19:36.311Z,1.85
2022-09-15T01:22:06.130Z,2.15
2022-09-15T01:24:39.664Z,1.98
2022-09-15T01:27:30.599Z,2.03
2022-09-15T01:30:10.787Z,1.48
2022-09-15T01:32:59.730Z,1.70
2022-09-15T01:35:28.972Z,1.98
2022-09-15T01:37:57.258Z,1.80
2022-09-15T01:40:24.838Z,1.80
2022-09-15T01:42:52.193Z,1.80
2022-09-15T01:45:22.140Z,1.65
2022-09-15T01:47:49.444Z,1.60
2022-09-15T01:50:17.434Z,1.77
2022-09-15T01:52:45.832Z,1.85
2022-09-15T01:55:14.478Z,1.80
2022-09-15T01:57:41.785Z,1.83
2022-09-15T02:00:09.856Z,1.83
2022-09-15T02:02:38.892Z,1.30
2022-09-15T02:05:07.100Z,1.30
2022-09-15T02:07:36.906Z,1.52
2022-09-15T02:10:07.173Z,1.58
2022-09-15T02:12:34.829Z,1.60
2022-09-15T02:15:07.778Z,1.50
2022-09-15T02:17:35.354Z,1.45
2022-09-15T02:20:06.853Z,1.73
2022-09-15T02:22:34.613Z,1.30
2022-09-15T02:25:03.781Z,1.73
2022-09-15T02:27:31.995Z,1.55
2022-09-15T02:30:00.142Z,1.50
2022-09-15T02:32:27.483Z,1.55
2022-09-15T02:34:54.782Z,1.40
2022-09-15T02:37:23.808Z,1.40
2022-09-15T02:39:52.823Z,1.38
2022-09-15T02:42:24.446Z,1.27
2022-09-15T02:44:51.747Z,1.50
2022-09-15T02:47:19.068Z,1.17
2022-09-15T02:49:46.514Z,0.88
2022-09-15T02:52:13.876Z,1.33
2022-09-15T02:54:42.497Z,1.40
2022-09-15T02:57:10.102Z,1.00
2022-09-15T02:59:51.361Z,1.23
2022-09-15T03:02:20.545Z,1.48
2022-09-15T03:04:48.026Z,1.90
2022-09-15T03:07:15.341Z,1.20
2022-09-15T03:09:43.987Z,1.40
2022-09-15T03:12:11.298Z,1.40
2022-09-15T03:14:38.582Z,1.20
2022-09-15T03:17:05.905Z,1.30
2022-09-15T03:19:33.207Z,1.50
2022-09-15T03:22:00.509Z,1.10
2022-09-15T03:24:27.846Z,1.05
2022-09-15T03:26:56.473Z,1.38
2022-09-15T03:29:23.986Z,1.45
2022-09-15T03:31:51.548Z,1.20
2022-09-15T03:34:19.006Z,1.65
2022-09-15T03:36:46.303Z,1.10
2022-09-15T03:39:13.864Z,1.20
2022-09-15T03:41:41.164Z,1.17
2022-09-15T03:44:09.835Z,1.10
2022-09-15T03:46:37.483Z,0.90
2022-09-15T03:49:04.791Z,1.20
2022-09-15T03:51:32.109Z,1.20
2022-09-15T03:53:59.411Z,1.13
2022-09-15T03:56:26.986Z,1.20
2022-09-15T03:58:54.724Z,0.95
2022-09-15T04:01:24.052Z,1.10
2022-09-15T04:03:51.702Z,1.40
2022-09-15T04:06:19.072Z,1.30
2022-09-15T04:08:46.380Z,1.60
2022-09-15T04:11:13.800Z,1.33
2022-09-15T04:13:41.724Z,1.30
2022-09-15T04:16:09.650Z,1.42
2022-09-15T04:18:38.302Z,1.48
2022-09-15T04:21:06.617Z,1.38
2022-09-15T04:23:34.004Z,1.55
2022-09-15T04:26:01.813Z,1.20
2022-09-15T04:28:29.301Z,1.33
2022-09-15T04:31:03.321Z,1.58
2022-09-15T04:33:30.631Z,1.60
2022-09-15T04:36:00.474Z,1.35
2022-09-15T04:38:27.762Z,1.45
2022-09-15T04:40:55.381Z,1.35
2022-09-15T04:43:22.737Z,1.45
2022-09-15T04:45:50.128Z,1.00
2022-09-15T04:48:17.410Z,1.20
2022-09-15T04:50:44.750Z,1.33
2022-09-15T04:53:13.416Z,1.40
2022-09-15T04:55:40.785Z,1.40
2022-09-15T04:58:08.126Z,1.50
2022-09-15T05:00:42.792Z,1.10
2022-09-15T05:03:10.242Z,1.20
2022-09-15T05:05:37.544Z,0.98
2022-09-15T05:08:04.855Z,1.45
2022-09-15T05:10:33.439Z,1.13
2022-09-15T05:13:02.061Z,1.25
2022-09-15T05:15:29.345Z,1.13
2022-09-15T05:17:56.667Z,1.27
2022-09-15T05:20:24.051Z,1.30
2022-09-15T05:22:51.363Z,1.20
2022-09-15T05:25:18.654Z,1.48
2022-09-15T05:27:46.012Z,1.50
2022-09-15T05:30:36.855Z,1.30
2022-09-15T05:33:02.121Z,1.10
2022-09-15T05:35:29.403Z,1.13
2022-09-15T05:37:56.711Z,1.48
2022-09-15T05:40:24.096Z,1.27
2022-09-15T05:42:51.417Z,1.38
2022-09-15T05:45:20.069Z,1.65
2022-09-15T05:47:47.367Z,1.63
2022-09-15T05:50:14.783Z,1.33
2022-09-15T05:52:42.836Z,1.20
2022-09-15T05:55:10.514Z,1.67
2022-09-15T05:57:37.795Z,1.40
2022-09-15T06:00:05.529Z,1.67
2022-09-15T06:02:34.265Z,1.55
2022-09-15T06:05:02.927Z,1.50
2022-09-15T06:07:30.234Z,1.50
2022-09-15T06:09:57.645Z,1.25
2022-09-15T06:12:24.937Z,1.50
2022-09-15T06:14:53.067Z,1.67
2022-09-15T06:17:22.130Z,1.27
2022-09-15T06:19:50.789Z,1.13
2022-09-15T06:22:18.107Z,1.00
2022-09-15T06:24:45.394Z,1.33
2022-09-15T06:27:12.687Z,1.40
2022-09-15T06:29:40.321Z,1.15
2022-09-15T06:32:07.683Z,1.45
2022-09-15T06:34:35.039Z,1.25
2022-09-15T06:37:03.719Z,2.00
2022-09-15T06:39:31.029Z,1.60
2022-09-15T06:42:02.877Z,1.30
2022-09-15T06:44:31.471Z,1.58
2022-09-15T06:46:58.776Z,1.40
2022-09-15T06:49:26.463Z,1.33
2022-09-15T06:51:53.758Z,1.65
2022-09-15T06:54:22.382Z,1.40
2022-09-15T06:56:49.688Z,1.27
2022-09-15T06:59:17.246Z,1.17
2022-09-15T07:01:44.560Z,2.75
2022-09-15T07:04:11.854Z,4.03
2022-09-15T07:06:39.561Z,4.10
2022-09-15T07:09:06.958Z,4.03
2022-09-15T07:11:35.623Z,3.97
2022-09-15T07:14:02.909Z,4.05
2022-09-15T07:16:30.270Z,3.30
2022-09-15T07:18:58.103Z,3.22
2022-09-15T07:21:25.362Z,2.83
2022-09-15T07:23:52.794Z,2.78
2022-09-15T07:26:20.578Z,2.45
2022-09-15T07:28:50.491Z,2.45
2022-09-15T07:31:18.448Z,2.30
2022-09-15T07:33:45.774Z,2.13
2022-09-15T07:36:13.065Z,2.13
2022-09-15T07:38:40.680Z,2.22
2022-09-15T07:41:08.402Z,2.10
2022-09-15T07:43:35.695Z,1.80
2022-09-15T07:46:04.443Z,1.88
2022-09-15T07:48:31.861Z,1.60
2022-09-15T07:50:59.809Z,1.77
2022-09-15T07:53:28.210Z,1.83
2022-09-15T07:55:55.752Z,1.90
2022-09-15T07:58:23.196Z,1.90
2022-09-15T08:00:50.786Z,1.40
2022-09-15T08:03:19.528Z,1.38
2022-09-15T08:05:46.843Z,1.92
2022-09-15T08:08:14.172Z,1.98
2022-09-15T08:10:41.771Z,1.52
2022-09-15T08:13:09.138Z,1.58
2022-09-15T08:15:37.025Z,2.05
2022-09-15T08:18:04.610Z,1.40
2022-09-15T08:20:33.281Z,2.10
2022-09-15T08:23:00.606Z,1.63
2022-09-15T08:25:27.886Z,1.65
2022-09-15T08:27:56.290Z,1.70
2022-09-15T08:30:23.637Z,1.63
2022-09-15T08:32:50.979Z,1.20
2022-09-15T08:35:18.459Z,1.15
2022-09-15T08:37:47.107Z,1.25
2022-09-15T08:40:15.964Z,1.48
2022-09-15T08:42:45.012Z,1.30
2022-09-15T08:45:15.845Z,1.70
2022-09-15T08:47:44.080Z,1.00
2022-09-15T08:50:12.437Z,1.20
2022-09-15T08:52:40.132Z,1.08
2022-09-15T08:55:12.628Z,1.20
2022-09-15T08:57:40.119Z,1.17
2022-09-15T09:00:08.389Z,1.17
2022-09-15T09:02:39.066Z,1.40
2022-09-15T09:05:07.392Z,1.13
2022-09-15T09:07:38.969Z,1.00
2022-09-15T09:10:08.032Z,0.85
2022-09-15T09:12:49.985Z,1.10
2022-09-15T09:15:21.869Z,1.08
2022-09-15T09:17:56.435Z,1.23
2022-09-15T09:20:35.210Z,1.25
2022-09-15T09:23:02.943Z,1.55
2022-09-15T09:25:31.152Z,0.98
2022-09-15T09:27:59.998Z,1.05
2022-09-15T09:30:28.174Z,1.00
2022-09-15T09:32:58.607Z,1.25
2022-09-15T09:35:27.339Z,1.15
2022-09-15T09:37:54.648Z,1.20
2022-09-15T09:40:22.074Z,0.90
2022-09-15T09:42:49.888Z,1.70
2022-09-15T09:45:19.533Z,1.45
2022-09-15T09:47:47.196Z,2.28
2022-09-15T09:50:33.312Z,1.70
2022-09-15T09:53:00.746Z,1.50
2022-09-15T09:55:28.443Z,1.42
2022-09-15T09:57:55.895Z,1.13
2022-09-15T10:00:34.199Z,1.20
2022-09-15T10:03:09.754Z,0.98
2022-09-15T10:05:37.026Z,1.00
2022-09-15T10:08:04.522Z,0.98
2022-09-15T10:10:32.389Z,0.93
2022-09-15T10:13:00.026Z,1.10
2022-09-15T10:15:28.051Z,1.10
2022-09-15T10:17:56.770Z,1.20
2022-09-15T10:20:25.612Z,1.25
2022-09-15T10:22:53.039Z,1.10
2022-09-15T10:25:49.378Z,0.95
2022-09-15T10:28:17.637Z,1.15
2022-09-15T10:30:57.430Z,0.90
2022-09-15T10:33:26.807Z,0.85
2022-09-15T10:35:54.491Z,1.00
2022-09-15T10:38:23.013Z,0.80
2022-09-15T10:40:52.005Z,0.85
2022-09-15T10:43:23.179Z,0.77
2022-09-15T10:45:50.615Z,0.98
2022-09-15T10:48:31.649Z,1.08
2022-09-15T10:50:59.920Z,0.75
2022-09-15T10:53:30.864Z,0.90
2022-09-15T10:55:59.646Z,1.05
2022-09-15T10:58:45.047Z,1.17
2022-09-15T11:01:29.329Z,1.10
2022-09-15T11:04:01.654Z,0.90
2022-09-15T11:06:29.554Z,0.80
2022-09-15T11:09:00.828Z,0.70
2022-09-15T11:11:30.911Z,0.77
2022-09-15T11:14:00.784Z,0.73
2022-09-15T11:16:30.776Z,0.85
2022-09-15T11:19:02.785Z,1.40
2022-09-15T11:21:30.603Z,1.10
2022-09-15T11:24:03.545Z,1.00
2022-09-15T11:26:31.226Z,1.10
2022-09-15T11:28:59.055Z,0.60
2022-09-15T11:31:27.245Z,1.15
2022-09-15T11:33:55.814Z,0.55
2022-09-15T11:36:26.046Z,0.80
2022-09-15T11:38:54.097Z,1.20
2022-09-15T11:41:23.068Z,0.70
2022-09-15T11:43:59.859Z,0.93
2022-09-15T11:46:29.214Z,1.42
2022-09-15T11:48:57.435Z,0.88
2022-09-15T11:51:26.184Z,1.23
2022-09-15T11:53:54.656Z,1.02
2022-09-15T11:56:22.696Z,1.10
2022-09-15T11:58:53.600Z,1.10
2022-09-15T12:01:21.265Z,1.10
2022-09-15T12:03:50.536Z,0.98
2022-09-15T12:06:18.458Z,1.10
2022-09-15T12:08:47.984Z,1.20
2022-09-15T12:11:17.497Z,0.85
2022-09-15T12:13:45.273Z,1.02
2022-09-15T12:16:12.577Z,0.90
2022-09-15T12:18:44.822Z,0.75
2022-09-15T12:21:14.922Z,0.98
2022-09-15T12:23:42.859Z,1.23
2022-09-15T12:26:15.387Z,1.13
2022-09-15T12:28:52.041Z,1.63
2022-09-15T12:31:29.640Z,1.00
2022-09-15T12:33:57.767Z,0.85
2022-09-15T12:36:35.347Z,0.70
2022-09-15T12:39:03.016Z,0.82
2022-09-15T12:41:31.748Z,1.10
2022-09-15T12:43:59.380Z,0.90
2022-09-15T12:46:26.815Z,1.00
2022-09-15T12:48:54.532Z,1.08
2022-09-15T12:51:22.563Z,0.80
2022-09-15T12:53:52.366Z,0.85
2022-09-15T12:56:23.480Z,0.90
2022-09-15T12:58:52.176Z,1.08
2022-09-15T13:01:33.110Z,1.15
2022-09-15T13:04:13.792Z,1.08
2022-09-15T13:06:41.105Z,1.10
2022-09-15T13:09:19.235Z,1.35
2022-09-15T13:11:46.942Z,0.70
2022-09-15T13:14:17.673Z,1.33
2022-09-15T13:16:46.967Z,1.00
2022-09-15T13:19:15.719Z,1.08
2022-09-15T13:21:43.194Z,0.98
2022-09-15T13:24:13.630Z,0.70
2022-09-15T13:26:40.930Z,0.77
2022-09-15T13:29:08.233Z,0.82
2022-09-15T13:31:38.664Z,1.20
2022-09-15T13:39:59.574Z,0.90
2022-09-15T13:42:28.029Z,1.20
2022-09-15T13:45:01.401Z,0.77
2022-09-15T13:47:37.840Z,0.90
2022-09-15T13:50:13.110Z,0.80
2022-09-15T13:52:47.392Z,0.80
2022-09-15T13:55:19.426Z,1.10
2022-09-15T14:00:36.255Z,1.00
2022-09-15T14:03:06.666Z,1.02
2022-09-15T14:05:34.557Z,1.02
2022-09-15T14:08:02.768Z,1.17
2022-09-15T14:10:30.420Z,0.80
2022-09-15T14:12:58.773Z,1.27
2022-09-15T14:15:26.067Z,0.90
2022-09-15T14:17:53.536Z,1.25
2022-09-15T14:20:24.166Z,1.10
2022-09-15T14:22:51.659Z,0.80
2022-09-15T14:25:19.089Z,1.05
2022-09-15T14:27:46.716Z,0.70
2022-09-15T14:30:18.024Z,0.70
2022-09-15T14:32:45.671Z,0.85
2022-09-15T14:35:17.311Z,0.88
2022-09-15T14:37:49.200Z,0.88
2022-09-15T14:40:20.306Z,0.80
2022-09-15T14:42:47.665Z,0.90
2022-09-15T14:48:03.806Z,2.10
2022-09-15T14:50:33.068Z,2.25
2022-09-15T14:53:03.827Z,1.75
2022-09-15T14:55:32.178Z,1.90
2022-09-15T14:58:00.550Z,1.70
2022-09-15T15:00:28.518Z,1.33
2022-09-15T15:02:58.955Z,1.58
2022-09-15T15:05:27.266Z,1.38
2022-09-15T15:07:55.284Z,1.02
2022-09-15T15:10:24.453Z,1.30
2022-09-15T15:12:51.951Z,1.65
2022-09-15T15:15:19.506Z,1.20
2022-09-15T15:17:49.218Z,1.27
2022-09-15T15:20:18.119Z,1.67
2022-09-15T15:22:45.727Z,1.25
2022-09-15T15:25:24.831Z,1.10
2022-09-15T15:27:52.482Z,1.20
2022-09-15T15:30:29.535Z,1.20
2022-09-15T15:32:57.244Z,1.02
2022-09-15T15:35:24.561Z,1.35
2022-09-15T15:38:00.023Z,1.20
2022-09-15T15:40:28.720Z,2.10
2022-09-15T15:42:59.472Z,1.42
2022-09-15T15:45:27.927Z,1.58
2022-09-15T15:47:55.292Z,2.05
2022-09-15T15:50:24.386Z,2.50
2022-09-15T15:52:52.101Z,3.95
2022-09-15T15:55:19.783Z,5.07
2022-09-15T15:57:49.284Z,4.47
2022-09-15T16:00:21.779Z,4.43
2022-09-15T16:02:49.463Z,4.00
2022-09-15T16:05:16.778Z,3.33
2022-09-15T16:07:44.175Z,3.60
2022-09-15T16:10:11.473Z,3.30
2022-09-15T16:12:38.749Z,3.50
2022-09-15T16:15:11.826Z,3.55
2022-09-15T16:17:43.074Z,3.08
2022-09-15T16:20:15.677Z,3.25
2022-09-15T16:22:43.119Z,3.40
2022-09-15T16:25:12.566Z,2.85
2022-09-15T16:27:40.239Z,2.90
2022-09-15T16:30:11.836Z,2.50
2022-09-15T16:32:40.584Z,2.55
2022-09-15T16:35:28.742Z,2.30
2022-09-15T16:37:56.066Z,2.05
2022-09-15T16:40:23.581Z,2.00
2022-09-15T16:42:50.922Z,2.20
2022-09-15T16:45:19.951Z,1.90
2022-09-15T16:47:48.613Z,1.67
2022-09-15T16:50:16.044Z,2.05
2022-09-15T16:52:43.331Z,1.55
2022-09-15T16:55:14.157Z,1.38
2022-09-15T16:57:41.473Z,1.23
2022-09-15T17:00:09.609Z,1.50
2022-09-15T17:02:36.925Z,0.95
2022-09-15T17:05:07.285Z,0.98
2022-09-15T17:07:34.638Z,1.23
2022-09-15T17:10:01.950Z,1.10
2022-09-15T17:12:29.246Z,0.80
2022-09-15T17:14:56.529Z,1.08
2022-09-15T17:17:24.343Z,0.82
2022-09-15T17:19:52.020Z,0.60
2022-09-15T17:22:20.695Z,0.80
2022-09-15T17:24:48.012Z,1.05
2022-09-15T17:27:15.323Z,0.85
2022-09-15T17:29:42.604Z,1.23
2022-09-15T17:32:09.920Z,0.90
2022-09-15T17:34:37.263Z,0.98
2022-09-15T17:37:04.590Z,0.93
2022-09-15T17:39:34.033Z,0.85
2022-09-15T17:44:32.167Z,0.70
2022-09-15T17:47:01.679Z,0.80
2022-09-15T17:49:28.960Z,0.90
2022-09-15T17:51:56.256Z,0.98
2022-09-15T17:54:23.920Z,0.70
2022-09-15T17:56:52.577Z,0.65
2022-09-15T17:59:19.859Z,0.82
2022-09-15T18:01:47.415Z,0.85
2022-09-15T18:04:14.772Z,0.60
2022-09-15T18:06:45.522Z,0.85
2022-09-15T18:09:14.663Z,0.88
2022-09-15T18:11:42.027Z,0.80
2022-09-15T18:14:10.927Z,0.60
2022-09-15T18:16:38.222Z,0.93
2022-09-15T18:19:05.539Z,0.60
2022-09-15T18:21:32.825Z,0.93
2022-09-15T18:24:00.126Z,0.65
2022-09-15T18:26:27.398Z,0.88
2022-09-15T18:28:55.792Z,0.90
2022-09-15T18:31:24.567Z,0.70
2022-09-15T18:33:51.914Z,0.93
2022-09-15T18:36:19.209Z,0.73
2022-09-15T18:38:46.541Z,0.50
2022-09-15T18:41:13.893Z,0.57
2022-09-15T18:43:41.256Z,0.60
2022-09-15T18:46:08.674Z,0.57
2022-09-15T18:48:37.368Z,0.80
2022-09-15T18:51:08.286Z,1.08
2022-09-15T18:53:35.953Z,0.80
2022-09-15T18:56:09.354Z,0.43
2022-09-15T18:58:37.361Z,0.70
2022-09-15T19:01:04.892Z,0.73
2022-09-15T19:03:33.765Z,0.70
2022-09-15T19:06:04.518Z,0.60
2022-09-15T19:08:31.815Z,0.75
2022-09-15T19:10:59.295Z,0.50
2022-09-15T19:13:26.749Z,0.70
2022-09-15T19:15:54.126Z,0.57
2022-09-15T19:18:21.855Z,1.45
2022-09-15T19:20:49.150Z,0.60
2022-09-15T19:23:17.903Z,0.63
2022-09-15T19:25:45.165Z,0.90
2022-09-15T19:28:12.499Z,0.70
2022-09-15T19:30:39.816Z,0.45
2022-09-15T19:33:07.174Z,0.82
2022-09-15T19:35:34.483Z,0.55
2022-09-15T19:38:01.777Z,0.63
2022-09-15T19:40:30.907Z,0.70
2022-09-15T19:42:58.281Z,0.52
2022-09-15T19:45:25.579Z,0.47
2022-09-15T19:47:52.866Z,0.43
2022-09-15T19:50:20.184Z,0.55
2022-09-15T19:52:47.497Z,0.50
2022-09-15T19:55:14.800Z,0.38
2022-09-15T19:57:43.438Z,0.60
2022-09-15T20:00:11.560Z,0.70
2022-09-15T20:02:39.160Z,0.47
2022-09-15T20:05:07.554Z,0.52
2022-09-15T20:07:34.813Z,0.55
2022-09-15T20:10:02.338Z,0.57
2022-09-15T20:12:31.059Z,0.82
2022-09-15T20:14:59.720Z,1.10
2022-09-15T20:17:27.083Z,1.10
2022-09-15T20:19:54.553Z,1.98
2022-09-15T20:22:21.863Z,1.50
2022-09-15T20:24:49.258Z,1.10
2022-09-15T20:27:16.574Z,1.88
2022-09-15T20:29:43.870Z,1.58
2022-09-15T20:32:12.505Z,1.40
2022-09-15T20:34:39.865Z,1.67
2022-09-15T20:37:07.177Z,1.58
2022-09-15T20:39:35.674Z,0.95
2022-09-15T20:42:02.969Z,1.08
2022-09-15T20:44:30.245Z,1.20
2022-09-15T20:46:57.553Z,1.20
2022-09-15T20:49:26.207Z,1.30
2022-09-15T20:51:53.501Z,1.00
2022-09-15T20:54:20.862Z,1.10
2022-09-15T20:56:48.206Z,0.70
2022-09-15T20:59:15.634Z,1.05
2022-09-15T21:01:43.378Z,0.80
2022-09-15T21:04:10.810Z,1.00
2022-09-15T21:06:39.457Z,0.70
2022-09-15T21:09:06.777Z,1.00
2022-09-15T21:11:34.062Z,0.68
2022-09-15T21:14:01.721Z,0.80
2022-09-15T21:16:29.208Z,0.80
2022-09-15T21:18:56.574Z,0.80
2022-09-15T21:21:24.167Z,0.50
2022-09-15T21:23:53.308Z,0.95
2022-09-15T21:26:20.955Z,0.60
2022-09-15T21:28:48.652Z,0.77
2022-09-15T21:31:16.769Z,0.50
2022-09-15T21:33:44.151Z,0.50
2022-09-15T21:36:12.007Z,0.40
2022-09-15T21:38:40.714Z,0.50
2022-09-15T21:41:10.180Z,0.52
2022-09-15T21:43:38.033Z,0.63
2022-09-15T21:46:05.497Z,0.40
2022-09-15T21:48:32.916Z,0.43
2022-09-15T21:51:00.234Z,0.55
2022-09-15T21:53:27.688Z,0.68
2022-09-15T21:55:54.986Z,0.40
2022-09-15T21:58:25.930Z,0.40
2022-09-15T22:00:53.761Z,0.97
2022-09-15T22:03:21.393Z,0.70
2022-09-15T22:05:49.746Z,0.57
2022-09-15T22:08:17.244Z,0.80
2022-09-15T22:10:44.614Z,0.98
2022-09-15T22:13:12.041Z,0.70
2022-09-15T22:15:40.731Z,0.63
2022-09-15T22:18:08.260Z,0.80
2022-09-15T22:20:35.924Z,0.70
2022-09-15T22:23:03.220Z,0.80
2022-09-15T22:25:31.058Z,0.63
2022-09-15T22:27:58.386Z,0.50
2022-09-15T22:30:25.691Z,0.55
2022-09-15T22:32:54.573Z,0.57
2022-09-15T22:35:21.852Z,0.60
2022-09-15T22:37:49.211Z,0.50
2022-09-15T22:40:16.990Z,0.57
2022-09-15T22:42:44.363Z,0.70
2022-09-15T22:45:11.830Z,1.00
2022-09-15T22:47:39.120Z,0.90
2022-09-15T22:50:08.080Z,1.20
2022-09-15T22:52:35.468Z,0.93
2022-09-15T22:55:03.107Z,0.95
2022-09-15T22:57:30.456Z,0.85
2022-09-15T22:59:57.775Z,0.68
2022-09-15T23:02:25.108Z,0.80
2022-09-15T23:04:54.128Z,0.70
2022-09-15T23:07:22.757Z,0.63
2022-09-15T23:09:50.330Z,0.73
2022-09-15T23:12:17.612Z,0.50
2022-09-15T23:14:44.939Z,0.75
2022-09-15T23:17:13.059Z,0.50
2022-09-15T23:19:40.352Z,0.70
2022-09-15T23:22:07.631Z,0.65
2022-09-15T23:24:36.298Z,0.52
2022-09-15T23:27:04.320Z,0.75
2022-09-15T23:29:31.622Z,0.60
2022-09-15T23:31:58.990Z,0.40
2022-09-15T23:34:26.349Z,0.60
2022-09-15T23:36:53.685Z,0.80
2022-09-15T23:39:21.017Z,0.50
2022-09-15T23:41:49.642Z,0.40
2022-09-15T23:44:16.946Z,0.50
2022-09-15T23:46:44.513Z,0.88
2022-09-15T23:49:15.484Z,0.57
2022-09-15T23:51:45.360Z,0.45
2022-09-15T23:54:12.667Z,1.00
2022-09-15T23:56:39.983Z,0.80
2022-09-15T23:59:08.631Z,0.82
